createdAt,value
2022-11-21T00:00:01.014Z,-1.67
2022-11-21T00:01:27.237Z,-1.66
2022-11-21T00:02:29.419Z,-1.67
2022-11-21T00:03:31.604Z,-1.67
2022-11-21T00:04:33.943Z,-1.66
2022-11-21T00:05:40.006Z,-1.65
2022-11-21T00:06:42.311Z,-1.66
2022-11-21T00:07:46.176Z,-1.65
2022-11-21T00:08:48.428Z,-1.65
2022-11-21T00:09:53.409Z,-1.64
2022-11-21T00:11:01.762Z,-1.63
2022-11-21T00:12:04.105Z,-1.64
2022-11-21T00:13:07.802Z,-1.63
2022-11-21T00:14:10.069Z,-1.64
2022-11-21T00:15:12.335Z,-1.63
2022-11-21T00:16:16.202Z,-1.62
2022-11-21T00:17:18.984Z,-1.61
2022-11-21T00:18:21.193Z,-1.63
2022-11-21T00:19:23.354Z,-1.62
2022-11-21T00:20:25.574Z,-1.62
2022-11-21T00:21:27.761Z,-1.60
2022-11-21T00:22:31.855Z,-1.60
2022-11-21T00:23:34.237Z,-1.59
2022-11-21T00:24:36.520Z,-1.60
2022-11-21T00:25:39.455Z,-1.57
2022-11-21T00:26:41.740Z,-1.59
2022-11-21T00:27:43.976Z,-1.58
2022-11-21T00:28:46.309Z,-1.59
2022-11-21T00:29:48.489Z,-1.59
2022-11-21T00:30:50.670Z,-1.57
2022-11-21T00:31:52.863Z,-1.55
2022-11-21T00:32:55.167Z,-1.56
2022-11-21T00:33:57.621Z,-1.56
2022-11-21T00:34:59.925Z,-1.57
2022-11-21T00:36:09.237Z,-1.56
2022-11-21T00:37:11.499Z,-1.56
2022-11-21T00:38:13.912Z,-1.54
2022-11-21T00:39:16.121Z,-1.54
2022-11-21T00:40:18.541Z,-1.54
2022-11-21T00:41:20.749Z,-1.53
2022-11-21T00:42:22.926Z,-1.54
2022-11-21T00:43:25.235Z,-1.53
2022-11-21T00:44:27.725Z,-1.51
2022-11-21T00:45:30.139Z,-1.50
2022-11-21T00:46:32.549Z,-1.50
2022-11-21T00:47:34.754Z,-1.51
2022-11-21T00:48:36.972Z,-1.50
2022-11-21T00:49:39.141Z,-1.48
2022-11-21T00:50:41.346Z,-1.48
2022-11-21T00:51:43.989Z,-1.47
2022-11-21T00:52:46.277Z,-1.46
2022-11-21T00:53:48.597Z,-1.46
2022-11-21T00:54:50.855Z,-1.47
2022-11-21T00:55:53.177Z,-1.46
2022-11-21T00:56:55.397Z,-1.45
2022-11-21T00:57:57.684Z,-1.45
2022-11-21T00:59:00.051Z,-1.46
2022-11-21T01:00:02.254Z,-1.46
2022-11-21T01:01:06.101Z,-1.46
2022-11-21T01:02:10.630Z,-1.44
2022-11-21T01:03:12.951Z,-1.44
2022-11-21T01:04:15.177Z,-1.43
2022-11-21T01:05:17.544Z,-1.42
2022-11-21T01:06:19.980Z,-1.41
2022-11-21T01:07:22.230Z,-1.42
2022-11-21T01:08:24.515Z,-1.42
2022-11-21T01:09:28.732Z,-1.40
2022-11-21T01:10:31.156Z,-1.41
2022-11-21T01:11:33.838Z,-1.38
2022-11-21T01:12:36.056Z,-1.37
2022-11-21T01:13:38.884Z,-1.35
2022-11-21T01:14:41.113Z,-1.36
2022-11-21T01:15:43.382Z,-1.37
2022-11-21T01:16:45.681Z,-1.36
2022-11-21T01:17:47.954Z,-1.35
2022-11-21T01:18:50.688Z,-1.33
2022-11-21T01:19:52.888Z,-1.33
2022-11-21T01:20:55.112Z,-1.32
2022-11-21T01:21:57.395Z,-1.32
2022-11-21T01:22:59.783Z,-1.31
2022-11-21T01:24:02.974Z,-1.30
2022-11-21T01:25:05.675Z,-1.30
2022-11-21T01:26:12.276Z,-1.28
2022-11-21T01:27:14.600Z,-1.29
2022-11-21T01:28:16.864Z,-1.28
2022-11-21T01:29:19.200Z,-1.27
2022-11-21T01:30:21.438Z,-1.25
2022-11-21T01:31:25.688Z,-1.24
2022-11-21T01:32:27.945Z,-1.23
2022-11-21T01:33:30.139Z,-1.24
2022-11-21T01:34:32.385Z,-1.22
2022-11-21T01:35:34.598Z,-1.22
2022-11-21T01:36:37.884Z,-1.20
2022-11-21T01:37:40.089Z,-1.19
2022-11-21T01:38:47.742Z,-1.18
2022-11-21T01:39:50.390Z,-1.18
2022-11-21T01:40:52.565Z,-1.16
2022-11-21T01:41:54.941Z,-1.16
2022-11-21T01:43:03.563Z,-1.14
2022-11-21T01:44:25.472Z,-1.13
2022-11-21T01:45:56.451Z,-1.14
2022-11-21T01:46:58.696Z,-1.14
2022-11-21T01:48:00.902Z,-1.12
2022-11-21T01:49:08.136Z,-1.12
2022-11-21T01:50:12.991Z,-1.10
2022-11-21T01:51:21.491Z,-1.11
2022-11-21T01:52:29.195Z,-1.09
2022-11-21T01:53:32.240Z,-1.07
2022-11-21T01:54:45.653Z,-1.06
2022-11-21T01:55:49.088Z,-1.05
2022-11-21T01:57:03.861Z,-1.05
2022-11-21T01:58:06.178Z,-1.04
2022-11-21T01:59:11.641Z,-1.03
2022-11-21T02:00:21.751Z,-1.03
2022-11-21T02:01:24.636Z,-1.02
2022-11-21T02:02:33.776Z,-1.00
2022-11-21T02:03:41.864Z,-1.00
2022-11-21T02:04:45.022Z,-0.98
2022-11-21T02:05:47.613Z,-0.97
2022-11-21T02:06:49.899Z,-0.95
2022-11-21T02:07:57.376Z,-0.94
2022-11-21T02:09:01.418Z,-0.95
2022-11-21T02:10:08.117Z,-0.95
2022-11-21T02:11:34.966Z,-0.96
2022-11-21T02:12:53.836Z,-0.96
2022-11-21T02:13:56.458Z,-0.95
2022-11-21T02:14:59.542Z,-0.93
2022-11-21T02:16:02.732Z,-0.91
2022-11-21T02:17:08.375Z,-0.90
2022-11-21T02:18:12.498Z,-0.90
2022-11-21T02:19:27.519Z,-0.90
2022-11-21T02:20:30.510Z,-0.88
2022-11-21T02:21:49.901Z,-0.86
2022-11-21T02:22:55.024Z,-0.85
2022-11-21T02:24:29.950Z,-0.82
2022-11-21T02:25:37.900Z,-0.82
2022-11-21T02:26:41.052Z,-0.82
2022-11-21T02:27:43.462Z,-0.81
2022-11-21T02:28:45.821Z,-0.79
2022-11-21T02:29:48.095Z,-0.81
2022-11-21T02:30:50.877Z,-0.78
2022-11-21T02:31:53.823Z,-0.77
2022-11-21T02:32:56.081Z,-0.77
2022-11-21T02:33:58.255Z,-0.75
2022-11-21T02:35:00.536Z,-0.74
2022-11-21T02:36:03.055Z,-0.74
2022-11-21T02:37:05.239Z,-0.71
2022-11-21T02:38:38.092Z,-0.70
2022-11-21T02:39:40.663Z,-0.72
2022-11-21T02:40:51.577Z,-0.68
2022-11-21T02:42:08.886Z,-0.67
2022-11-21T02:43:23.204Z,-0.66
2022-11-21T02:44:36.063Z,-0.66
2022-11-21T02:45:40.475Z,-0.64
2022-11-21T02:47:08.402Z,-0.63
2022-11-21T02:48:11.533Z,-0.62
2022-11-21T02:49:16.934Z,-0.61
2022-11-21T02:50:33.314Z,-0.59
2022-11-21T02:51:35.572Z,-0.58
2022-11-21T02:52:37.824Z,-0.59
2022-11-21T02:53:39.996Z,-0.58
2022-11-21T02:54:42.397Z,-0.57
2022-11-21T02:55:45.140Z,-0.57
2022-11-21T02:56:47.350Z,-0.55
2022-11-21T02:57:50.218Z,-0.53
2022-11-21T02:58:52.427Z,-0.52
2022-11-21T02:59:54.666Z,-0.50
2022-11-21T03:00:56.983Z,-0.50
2022-11-21T03:01:59.941Z,-0.49
2022-11-21T03:03:03.024Z,-0.47
2022-11-21T03:04:05.201Z,-0.45
2022-11-21T03:05:11.760Z,-0.43
2022-11-21T03:06:14.030Z,-0.43
2022-11-21T03:07:16.335Z,-0.42
2022-11-21T03:08:18.801Z,-0.40
2022-11-21T03:09:21.052Z,-0.41
2022-11-21T03:10:25.028Z,-0.38
2022-11-21T03:11:27.256Z,-0.35
2022-11-21T03:12:29.417Z,-0.35
2022-11-21T03:13:31.829Z,-0.32
2022-11-21T03:14:37.180Z,-0.32
2022-11-21T03:15:39.353Z,-0.31
2022-11-21T03:16:41.583Z,-0.31
2022-11-21T03:17:43.886Z,-0.29
2022-11-21T03:18:46.144Z,-0.28
2022-11-21T03:19:48.389Z,-0.27
2022-11-21T03:20:50.673Z,-0.26
2022-11-21T03:21:52.894Z,-0.24
2022-11-21T03:22:55.217Z,-0.24
2022-11-21T03:23:57.495Z,-0.22
2022-11-21T03:24:59.758Z,-0.21
2022-11-21T03:26:01.946Z,-0.20
2022-11-21T03:27:04.303Z,-0.19
2022-11-21T03:28:07.305Z,-0.18
2022-11-21T03:29:09.550Z,-0.17
2022-11-21T03:30:12.449Z,-0.15
2022-11-21T03:31:14.641Z,-0.14
2022-11-21T03:32:16.899Z,-0.13
2022-11-21T03:33:19.098Z,-0.12
2022-11-21T03:34:21.386Z,-0.11
2022-11-21T03:35:24.654Z,-0.10
2022-11-21T03:36:26.943Z,-0.08
2022-11-21T03:37:29.162Z,-0.08
2022-11-21T03:38:31.413Z,-0.07
2022-11-21T03:39:33.895Z,-0.06
2022-11-21T03:40:36.093Z,-0.06
2022-11-21T03:41:38.393Z,-0.05
2022-11-21T03:42:40.621Z,-0.03
2022-11-21T03:43:42.849Z,-0.02
2022-11-21T03:44:45.121Z,-0.01
2022-11-21T03:45:48.125Z,-0.01
2022-11-21T03:46:50.405Z,0.00
2022-11-21T03:47:52.663Z,0.01
2022-11-21T03:48:55.192Z,0.04
2022-11-21T03:49:57.372Z,0.05
2022-11-21T03:50:59.608Z,0.06
2022-11-21T03:52:01.782Z,0.05
2022-11-21T03:53:03.962Z,0.07
2022-11-21T03:54:06.704Z,0.09
2022-11-21T03:55:09.159Z,0.09
2022-11-21T03:56:11.668Z,0.11
2022-11-21T03:57:13.872Z,0.11
2022-11-21T03:58:16.101Z,0.15
2022-11-21T03:59:18.293Z,0.16
2022-11-21T04:00:20.518Z,0.16
2022-11-21T04:01:23.366Z,0.17
2022-11-21T04:02:25.562Z,0.18
2022-11-21T04:03:27.738Z,0.18
2022-11-21T04:04:30.291Z,0.20
2022-11-21T04:05:32.657Z,0.20
2022-11-21T04:06:34.903Z,0.23
2022-11-21T04:07:37.187Z,0.22
2022-11-21T04:08:40.398Z,0.24
2022-11-21T04:09:42.672Z,0.25
2022-11-21T04:10:48.585Z,0.26
2022-11-21T04:11:50.878Z,0.26
2022-11-21T04:12:53.147Z,0.27
2022-11-21T04:13:55.460Z,0.28
2022-11-21T04:14:57.703Z,0.29
2022-11-21T04:15:59.946Z,0.30
2022-11-21T04:17:02.163Z,0.31
2022-11-21T04:18:04.391Z,0.31
2022-11-21T04:19:06.645Z,0.32
2022-11-21T04:20:10.226Z,0.33
2022-11-21T04:21:12.553Z,0.35
2022-11-21T04:22:14.721Z,0.34
2022-11-21T04:23:16.911Z,0.35
2022-11-21T04:24:19.216Z,0.37
2022-11-21T04:25:21.377Z,0.37
2022-11-21T04:26:23.590Z,0.39
2022-11-21T04:27:25.819Z,0.39
2022-11-21T04:28:28.013Z,0.41
2022-11-21T04:29:30.207Z,0.41
2022-11-21T04:30:34.267Z,0.42
2022-11-21T04:31:36.863Z,0.42
2022-11-21T04:32:39.099Z,0.43
2022-11-21T04:33:41.287Z,0.44
2022-11-21T04:34:43.568Z,0.45
2022-11-21T04:35:46.957Z,0.46
2022-11-21T04:36:49.192Z,0.47
2022-11-21T04:37:52.142Z,0.46
2022-11-21T04:38:54.410Z,0.46
2022-11-21T04:39:56.564Z,0.48
2022-11-21T04:40:58.764Z,0.48
2022-11-21T04:42:00.984Z,0.48
2022-11-21T04:43:03.634Z,0.50
2022-11-21T04:44:05.939Z,0.50
2022-11-21T04:45:08.905Z,0.52
2022-11-21T04:46:11.149Z,0.53
2022-11-21T04:47:15.881Z,0.53
2022-11-21T04:48:18.116Z,0.53
2022-11-21T04:49:20.302Z,0.54
2022-11-21T04:50:26.113Z,0.56
2022-11-21T04:51:28.339Z,0.56
2022-11-21T04:52:30.928Z,0.58
2022-11-21T04:53:34.617Z,0.59
2022-11-21T04:54:39.594Z,0.60
2022-11-21T04:55:41.841Z,0.61
2022-11-21T04:56:44.147Z,0.61
2022-11-21T04:57:46.501Z,0.64
2022-11-21T04:58:52.916Z,0.65
2022-11-21T04:59:55.844Z,0.66
2022-11-21T05:00:58.122Z,0.66
2022-11-21T05:02:00.422Z,0.68
2022-11-21T05:03:06.233Z,0.70
2022-11-21T05:04:08.446Z,0.70
2022-11-21T05:05:11.601Z,0.72
2022-11-21T05:06:13.880Z,0.73
2022-11-21T05:07:16.649Z,0.73
2022-11-21T05:08:18.837Z,0.74
2022-11-21T05:09:21.138Z,0.74
2022-11-21T05:10:23.558Z,0.76
2022-11-21T05:11:44.560Z,0.75
2022-11-21T05:13:05.208Z,0.78
2022-11-21T05:14:07.524Z,0.80
2022-11-21T05:15:10.072Z,0.81
2022-11-21T05:16:12.380Z,0.81
2022-11-21T05:17:14.623Z,0.82
2022-11-21T05:18:17.037Z,0.82
2022-11-21T05:19:19.885Z,0.84
2022-11-21T05:20:22.165Z,0.83
2022-11-21T05:21:24.447Z,0.85
2022-11-21T05:22:26.765Z,0.85
2022-11-21T05:23:28.932Z,0.86
2022-11-21T05:24:31.182Z,0.87
2022-11-21T05:25:35.626Z,0.87
2022-11-21T05:26:38.254Z,0.88
2022-11-21T05:27:40.436Z,0.90
2022-11-21T05:28:42.984Z,0.89
2022-11-21T05:29:45.670Z,0.90
2022-11-21T05:30:47.896Z,0.91
2022-11-21T05:31:50.149Z,0.92
2022-11-21T05:32:52.399Z,0.93
2022-11-21T05:33:54.781Z,0.93
2022-11-21T05:34:56.931Z,0.94
2022-11-21T05:35:59.363Z,0.94
2022-11-21T05:37:01.796Z,0.95
2022-11-21T05:38:04.068Z,0.96
2022-11-21T05:39:06.476Z,0.97
2022-11-21T05:40:09.180Z,0.96
2022-11-21T05:41:11.451Z,0.97
2022-11-21T05:42:13.672Z,0.98
2022-11-21T05:43:34.319Z,0.98
2022-11-21T05:44:36.588Z,0.97
2022-11-21T05:45:39.270Z,0.97
2022-11-21T05:46:41.616Z,0.97
2022-11-21T05:47:43.960Z,0.97
2022-11-21T05:48:48.009Z,0.97
2022-11-21T05:49:50.286Z,0.99
2022-11-21T05:50:52.520Z,0.98
2022-11-21T05:51:54.718Z,0.99
2022-11-21T05:53:02.508Z,0.98
2022-11-21T05:54:05.045Z,0.99
2022-11-21T05:55:07.711Z,0.99
2022-11-21T05:56:15.513Z,0.98
2022-11-21T05:57:17.723Z,0.99
2022-11-21T05:58:20.016Z,0.99
2022-11-21T05:59:22.573Z,0.99
2022-11-21T06:00:24.853Z,0.99
2022-11-21T06:01:45.828Z,0.98
2022-11-21T06:03:06.548Z,0.99
2022-11-21T06:04:10.092Z,0.99
2022-11-21T06:05:12.332Z,1.00
2022-11-21T06:06:19.685Z,1.00
2022-11-21T06:07:24.526Z,0.98
2022-11-21T06:08:30.511Z,0.98
2022-11-21T06:09:32.775Z,0.98
2022-11-21T06:10:35.051Z,0.98
2022-11-21T06:11:37.317Z,0.99
2022-11-21T06:12:39.629Z,0.98
2022-11-21T06:13:42.440Z,0.99
2022-11-21T06:14:44.671Z,0.98
2022-11-21T06:15:54.170Z,0.98
2022-11-21T06:16:56.371Z,0.97
2022-11-21T06:18:00.729Z,0.98
2022-11-21T06:19:02.963Z,0.98
2022-11-21T06:20:06.703Z,0.98
2022-11-21T06:21:13.141Z,0.99
2022-11-21T06:22:15.391Z,0.98
2022-11-21T06:23:17.654Z,0.99
2022-11-21T06:24:22.286Z,0.99
2022-11-21T06:25:24.763Z,0.98
2022-11-21T06:26:27.853Z,0.99
2022-11-21T06:27:30.919Z,0.98
2022-11-21T06:28:36.185Z,0.99
2022-11-21T06:29:38.420Z,0.98
2022-11-21T06:30:40.790Z,0.98
2022-11-21T06:31:43.017Z,0.99
2022-11-21T06:32:45.188Z,0.99
2022-11-21T06:33:51.362Z,0.99
2022-11-21T06:34:53.583Z,0.99
2022-11-21T06:35:55.786Z,1.00
2022-11-21T06:36:58.067Z,0.99
2022-11-21T06:38:00.298Z,1.00
2022-11-21T06:39:02.509Z,0.99
2022-11-21T06:40:05.271Z,0.99
2022-11-21T06:41:12.423Z,1.00
2022-11-21T06:42:14.687Z,1.00
2022-11-21T06:43:16.905Z,0.99
2022-11-21T06:44:19.123Z,1.00
2022-11-21T06:45:21.337Z,0.98
2022-11-21T06:46:23.612Z,1.00
2022-11-21T06:47:25.858Z,1.01
2022-11-21T06:48:28.030Z,0.99
2022-11-21T06:49:30.377Z,1.00
2022-11-21T06:50:32.617Z,1.00
2022-11-21T06:51:34.836Z,1.00
2022-11-21T06:52:37.163Z,0.99
2022-11-21T06:53:39.392Z,0.99
2022-11-21T06:54:41.932Z,0.98
2022-11-21T06:55:44.128Z,0.99
2022-11-21T06:56:46.355Z,0.99
2022-11-21T06:57:48.602Z,0.98
2022-11-21T06:58:50.848Z,0.97
2022-11-21T06:59:53.032Z,0.99
2022-11-21T07:00:55.709Z,0.98
2022-11-21T07:01:57.952Z,0.98
2022-11-21T07:03:03.354Z,0.98
2022-11-21T07:04:05.839Z,0.98
2022-11-21T07:05:08.408Z,0.98
2022-11-21T07:06:10.744Z,0.98
2022-11-21T07:07:12.949Z,0.99
2022-11-21T07:08:15.183Z,0.99
2022-11-21T07:09:32.755Z,0.99
2022-11-21T07:10:36.155Z,0.99
2022-11-21T07:11:38.404Z,0.98
2022-11-21T07:12:59.173Z,0.98
2022-11-21T07:14:06.245Z,0.99
2022-11-21T07:15:11.475Z,0.98
2022-11-21T07:16:16.616Z,0.98
2022-11-21T07:17:18.791Z,0.96
2022-11-21T07:18:22.465Z,0.98
2022-11-21T07:19:24.769Z,0.97
2022-11-21T07:20:26.996Z,0.97
2022-11-21T07:21:29.206Z,0.97
2022-11-21T07:22:31.413Z,0.97
2022-11-21T07:23:34.497Z,0.98
2022-11-21T07:24:36.693Z,0.98
2022-11-21T07:25:42.579Z,0.97
2022-11-21T07:26:44.846Z,0.97
2022-11-21T07:27:47.124Z,0.95
2022-11-21T07:28:49.359Z,0.96
2022-11-21T07:29:52.345Z,0.93
2022-11-21T07:30:57.177Z,0.90
2022-11-21T07:31:59.334Z,0.88
2022-11-21T07:33:04.431Z,0.88
2022-11-21T07:34:06.615Z,0.87
2022-11-21T07:35:09.344Z,0.87
2022-11-21T07:36:12.885Z,0.86
2022-11-21T07:37:15.081Z,0.84
2022-11-21T07:38:17.471Z,0.83
2022-11-21T07:39:19.671Z,0.82
2022-11-21T07:40:22.083Z,0.79
2022-11-21T07:41:24.278Z,0.77
2022-11-21T07:42:26.456Z,0.78
2022-11-21T07:43:31.019Z,0.77
2022-11-21T07:44:33.215Z,0.76
2022-11-21T07:45:35.439Z,0.76
2022-11-21T07:46:38.550Z,0.74
2022-11-21T07:47:41.330Z,0.74
2022-11-21T07:48:43.507Z,0.73
2022-11-21T07:49:45.783Z,0.71
2022-11-21T07:50:48.069Z,0.71
2022-11-21T07:51:50.571Z,0.70
2022-11-21T07:52:57.849Z,0.69
2022-11-21T07:54:00.074Z,0.68
2022-11-21T07:55:05.920Z,0.67
2022-11-21T07:56:10.817Z,0.67
2022-11-21T07:57:12.991Z,0.65
2022-11-21T07:58:16.746Z,0.63
2022-11-21T07:59:19.393Z,0.61
2022-11-21T08:00:22.717Z,0.61
2022-11-21T08:01:24.959Z,0.60
2022-11-21T08:02:31.845Z,0.58
2022-11-21T08:03:35.141Z,0.55
2022-11-21T08:04:37.341Z,0.54
2022-11-21T08:05:44.510Z,0.53
2022-11-21T08:06:46.959Z,0.51
2022-11-21T08:07:49.421Z,0.50
2022-11-21T08:08:55.121Z,0.47
2022-11-21T08:09:57.500Z,0.43
2022-11-21T08:11:08.260Z,0.41
2022-11-21T08:12:11.331Z,0.39
2022-11-21T08:13:14.672Z,0.38
2022-11-21T08:14:16.894Z,0.36
2022-11-21T08:15:19.084Z,0.35
2022-11-21T08:16:22.918Z,0.34
2022-11-21T08:17:28.015Z,0.33
2022-11-21T08:18:30.254Z,0.31
2022-11-21T08:19:32.785Z,0.30
2022-11-21T08:20:34.981Z,0.27
2022-11-21T08:21:37.239Z,0.25
2022-11-21T08:22:40.983Z,0.23
2022-11-21T08:23:43.151Z,0.22
2022-11-21T08:24:48.315Z,0.21
2022-11-21T08:25:52.004Z,0.20
2022-11-21T08:26:54.347Z,0.20
2022-11-21T08:27:57.779Z,0.17
2022-11-21T08:29:00.622Z,0.15
2022-11-21T08:30:03.277Z,0.15
2022-11-21T08:31:06.527Z,0.14
2022-11-21T08:32:08.709Z,0.14
2022-11-21T08:33:10.909Z,0.10
2022-11-21T08:34:14.712Z,0.11
2022-11-21T08:35:17.337Z,0.10
2022-11-21T08:36:19.533Z,0.09
2022-11-21T08:37:21.903Z,0.08
2022-11-21T08:38:24.553Z,0.08
2022-11-21T08:39:28.415Z,0.06
2022-11-21T08:40:32.253Z,0.06
2022-11-21T08:41:53.431Z,0.05
2022-11-21T08:43:00.044Z,0.05
2022-11-21T08:44:02.556Z,0.04
2022-11-21T08:45:06.216Z,0.05
2022-11-21T08:46:08.541Z,0.03
2022-11-21T08:47:10.860Z,0.03
2022-11-21T08:48:14.235Z,0.02
2022-11-21T08:49:16.531Z,0.02
2022-11-21T08:50:18.954Z,0.02
2022-11-21T08:51:21.611Z,0.00
2022-11-21T08:52:24.261Z,-0.00
2022-11-21T08:53:26.483Z,0.00
2022-11-21T08:54:29.040Z,-0.00
2022-11-21T08:55:31.490Z,-0.02
2022-11-21T08:56:33.665Z,-0.02
2022-11-21T08:57:40.160Z,-0.02
2022-11-21T08:58:42.469Z,-0.02
2022-11-21T08:59:44.648Z,-0.02
2022-11-21T09:00:47.017Z,-0.02
2022-11-21T09:01:49.246Z,-0.02
2022-11-21T09:02:52.275Z,-0.01
2022-11-21T09:03:54.449Z,-0.03
2022-11-21T09:04:56.606Z,-0.03
2022-11-21T09:06:02.729Z,-0.03
2022-11-21T09:07:05.159Z,-0.03
2022-11-21T09:08:07.422Z,-0.04
2022-11-21T09:09:09.664Z,-0.03
2022-11-21T09:10:11.922Z,-0.04
2022-11-21T09:11:14.129Z,-0.06
2022-11-21T09:12:16.351Z,-0.03
2022-11-21T09:13:19.554Z,-0.06
2022-11-21T09:14:40.511Z,-0.06
2022-11-21T09:16:01.827Z,-0.06
2022-11-21T09:17:22.957Z,-0.08
2022-11-21T09:18:25.203Z,-0.07
2022-11-21T09:19:27.665Z,-0.08
2022-11-21T09:20:31.409Z,-0.07
2022-11-21T09:21:33.657Z,-0.09
2022-11-21T09:22:35.955Z,-0.10
2022-11-21T09:23:38.245Z,-0.10
2022-11-21T09:24:41.578Z,-0.10
2022-11-21T09:25:44.297Z,-0.11
2022-11-21T09:26:49.716Z,-0.10
2022-11-21T09:27:51.957Z,-0.10
2022-11-21T09:28:54.477Z,-0.11
2022-11-21T09:29:56.692Z,-0.11
2022-11-21T09:30:59.187Z,-0.11
2022-11-21T09:32:01.583Z,-0.10
2022-11-21T09:33:12.715Z,-0.09
2022-11-21T09:34:15.008Z,-0.10
2022-11-21T09:35:17.235Z,-0.07
2022-11-21T09:36:19.654Z,-0.07
2022-11-21T09:37:21.884Z,-0.09
2022-11-21T09:38:24.551Z,-0.08
2022-11-21T09:39:26.978Z,-0.08
2022-11-21T09:40:31.242Z,-0.08
2022-11-21T09:42:02.844Z,-0.07
2022-11-21T09:43:17.049Z,-0.05
2022-11-21T09:44:56.479Z,-0.05
2022-11-21T09:46:06.034Z,-0.04
2022-11-21T09:47:28.269Z,-0.06
2022-11-21T09:48:45.705Z,-0.05
2022-11-21T09:50:10.500Z,-0.04
2022-11-21T09:51:16.613Z,-0.06
2022-11-21T09:52:23.095Z,-0.04
2022-11-21T09:53:31.377Z,-0.06
2022-11-21T09:54:36.702Z,-0.04
2022-11-21T09:55:52.276Z,-0.04
2022-11-21T09:56:56.253Z,-0.06
2022-11-21T09:58:03.553Z,-0.06
2022-11-21T09:59:26.053Z,-0.04
2022-11-21T10:00:28.318Z,-0.05
2022-11-21T10:01:31.112Z,-0.04
2022-11-21T10:02:34.018Z,-0.03
2022-11-21T10:03:42.916Z,-0.02
2022-11-21T10:04:47.206Z,-0.03
2022-11-21T10:05:58.982Z,-0.02
2022-11-21T10:07:07.631Z,-0.02
2022-11-21T10:08:43.170Z,-0.02
2022-11-21T10:10:09.376Z,-0.01
2022-11-21T10:11:31.878Z,-0.01
2022-11-21T10:13:01.285Z,-0.01
2022-11-21T10:14:27.996Z,-0.01
2022-11-21T10:16:00.636Z,-0.01
2022-11-21T10:17:22.884Z,-0.00
2022-11-21T10:18:35.765Z,-0.01
2022-11-21T10:20:09.173Z,-0.00
2022-11-21T10:21:43.495Z,-0.00
2022-11-21T10:23:00.521Z,-0.00
2022-11-21T10:24:40.818Z,-0.00
2022-11-21T10:25:52.250Z,0.00
2022-11-21T10:26:59.333Z,0.00
2022-11-21T10:28:45.550Z,-0.01
2022-11-21T10:30:01.960Z,-0.01
2022-11-21T10:31:08.957Z,-0.01
2022-11-21T10:32:21.855Z,-0.00
2022-11-21T10:33:34.911Z,-0.00
2022-11-21T10:34:39.551Z,0.00
2022-11-21T10:35:50.532Z,0.00
2022-11-21T10:36:59.020Z,0.01
2022-11-21T10:38:03.066Z,0.03
2022-11-21T10:39:20.144Z,0.04
2022-11-21T10:40:37.632Z,0.04
2022-11-21T10:42:12.987Z,0.05
2022-11-21T10:44:03.549Z,0.06
2022-11-21T10:45:17.643Z,0.05
2022-11-21T10:46:20.238Z,0.06
2022-11-21T10:47:27.805Z,0.05
2022-11-21T10:48:30.269Z,0.07
2022-11-21T10:49:34.488Z,0.06
2022-11-21T10:51:10.669Z,0.08
2022-11-21T10:52:20.115Z,0.09
2022-11-21T10:53:42.994Z,0.09
2022-11-21T10:55:03.542Z,0.09
2022-11-21T10:56:07.570Z,0.10
2022-11-21T10:57:12.410Z,0.09
2022-11-21T10:58:19.574Z,0.09
2022-11-21T10:59:30.741Z,0.10
2022-11-21T11:00:33.335Z,0.11
2022-11-21T11:01:35.812Z,0.11
2022-11-21T11:02:39.154Z,0.12
2022-11-21T11:03:41.545Z,0.13
2022-11-21T11:04:49.039Z,0.14
2022-11-21T11:05:59.587Z,0.15
2022-11-21T11:07:27.130Z,0.17
2022-11-21T11:08:31.966Z,0.17
2022-11-21T11:09:35.903Z,0.19
2022-11-21T11:10:39.334Z,0.20
2022-11-21T11:11:41.524Z,0.21
2022-11-21T11:13:30.764Z,0.21
2022-11-21T11:14:33.153Z,0.23
2022-11-21T11:15:39.354Z,0.25
2022-11-21T11:16:46.994Z,0.25
2022-11-21T11:17:59.743Z,0.26
2022-11-21T11:19:24.189Z,0.27
2022-11-21T11:20:45.177Z,0.28
2022-11-21T11:21:47.850Z,0.29
2022-11-21T11:22:50.121Z,0.30
2022-11-21T11:23:55.051Z,0.31
2022-11-21T11:25:00.395Z,0.31
2022-11-21T11:26:03.232Z,0.32
2022-11-21T11:27:05.453Z,0.33
2022-11-21T11:28:09.332Z,0.33
2022-11-21T11:29:22.960Z,0.36
2022-11-21T11:30:26.835Z,0.37
2022-11-21T11:31:40.860Z,0.38
2022-11-21T11:32:43.334Z,0.39
2022-11-21T11:33:54.557Z,0.39
2022-11-21T11:35:06.378Z,0.41
2022-11-21T11:36:38.068Z,0.42
2022-11-21T11:37:42.606Z,0.43
2022-11-21T11:38:53.627Z,0.46
2022-11-21T11:40:23.326Z,0.47
2022-11-21T11:42:16.395Z,0.49
2022-11-21T11:44:08.552Z,0.52
2022-11-21T11:45:32.149Z,0.53
2022-11-21T11:47:10.528Z,0.54
2022-11-21T11:48:12.741Z,0.54
2022-11-21T11:50:09.607Z,0.55
2022-11-21T11:51:38.042Z,0.58
2022-11-21T11:52:57.747Z,0.60
2022-11-21T11:54:07.474Z,0.61
2022-11-21T11:55:19.784Z,0.64
2022-11-21T11:56:47.263Z,0.65
2022-11-21T11:57:54.834Z,0.67
2022-11-21T11:59:20.833Z,0.69
2022-11-21T12:00:23.238Z,0.71
2022-11-21T12:01:38.278Z,0.73
2022-11-21T12:03:04.187Z,0.75
2022-11-21T12:04:18.955Z,0.76
2022-11-21T12:05:26.433Z,0.78
2022-11-21T12:07:10.648Z,0.80
2022-11-21T12:10:04.462Z,0.85
2022-11-21T12:11:35.652Z,0.86
2022-11-21T12:12:55.109Z,0.89
2022-11-21T12:14:01.676Z,0.90
2022-11-21T12:15:37.372Z,0.91
2022-11-21T12:16:41.559Z,0.93
2022-11-21T12:17:51.936Z,0.94
2022-11-21T12:19:10.943Z,0.96
2022-11-21T12:20:30.507Z,0.96
2022-11-21T12:21:32.783Z,0.97
2022-11-21T12:22:35.016Z,0.98
2022-11-21T12:23:49.029Z,1.00
2022-11-21T12:24:51.753Z,1.01
2022-11-21T12:26:09.842Z,1.01
2022-11-21T12:27:40.524Z,1.04
2022-11-21T12:29:04.445Z,1.05
2022-11-21T12:30:24.051Z,1.07
2022-11-21T12:32:05.904Z,1.09
2022-11-21T12:33:30.072Z,1.11
2022-11-21T12:35:09.671Z,1.13
2022-11-21T12:36:22.427Z,1.13
2022-11-21T12:37:36.217Z,1.15
2022-11-21T12:38:53.674Z,1.17
2022-11-21T12:40:06.631Z,1.17
2022-11-21T12:41:51.466Z,1.19
2022-11-21T12:43:18.374Z,1.21
2022-11-21T12:44:39.991Z,1.22
2022-11-21T12:45:58.345Z,1.22
2022-11-21T12:47:05.098Z,1.22
2022-11-21T12:49:00.756Z,1.24
2022-11-21T12:50:39.161Z,1.25
2022-11-21T12:52:08.972Z,1.26
2022-11-21T12:54:09.007Z,1.27
2022-11-21T12:55:41.097Z,1.28
2022-11-21T12:56:52.117Z,1.27
2022-11-21T12:58:04.992Z,1.29
2022-11-21T12:59:15.274Z,1.29
2022-11-21T13:00:26.328Z,1.27
2022-11-21T13:01:42.473Z,1.27
2022-11-21T13:02:54.781Z,1.27
2022-11-21T13:04:05.208Z,1.29
2022-11-21T13:05:14.000Z,1.29
2022-11-21T13:06:29.229Z,1.29
2022-11-21T13:07:33.470Z,1.27
2022-11-21T13:08:37.889Z,1.29
2022-11-21T13:09:43.575Z,1.29
2022-11-21T13:11:31.127Z,1.30
2022-11-21T13:12:53.977Z,1.30
2022-11-21T13:14:29.145Z,1.30
2022-11-21T13:15:39.915Z,1.30
2022-11-21T13:17:09.334Z,1.30
2022-11-21T13:18:23.464Z,1.30
2022-11-21T13:19:37.620Z,1.31
2022-11-21T13:20:46.483Z,1.30
2022-11-21T13:21:55.097Z,1.30
2022-11-21T13:22:59.362Z,1.30
2022-11-21T13:24:01.817Z,1.30
2022-11-21T13:25:09.371Z,1.30
2022-11-21T13:26:26.555Z,1.31
2022-11-21T13:27:42.386Z,1.31
2022-11-21T13:28:47.276Z,1.30
2022-11-21T13:30:07.805Z,1.31
2022-11-21T13:31:48.778Z,1.32
2022-11-21T13:32:53.525Z,1.31
2022-11-21T13:33:55.968Z,1.32
2022-11-21T13:34:58.145Z,1.31
2022-11-21T13:36:12.030Z,1.33
2022-11-21T13:37:49.351Z,1.33
2022-11-21T13:38:51.512Z,1.33
2022-11-21T13:40:30.260Z,1.34
2022-11-21T13:41:54.140Z,1.34
2022-11-21T13:43:35.527Z,1.34
2022-11-21T13:44:41.569Z,1.33
2022-11-21T13:45:47.083Z,1.33
2022-11-21T13:47:04.759Z,1.33
2022-11-21T13:48:21.926Z,1.33
2022-11-21T13:49:34.757Z,1.32
2022-11-21T13:50:53.618Z,1.32
2022-11-21T13:51:56.270Z,1.33
2022-11-21T13:53:37.860Z,1.32
2022-11-21T13:55:15.954Z,1.33
2022-11-21T13:56:42.586Z,1.32
2022-11-21T13:58:07.044Z,1.31
2022-11-21T13:59:40.561Z,1.31
2022-11-21T14:01:27.452Z,1.30
2022-11-21T14:02:39.177Z,1.30
2022-11-21T14:03:50.766Z,1.29
2022-11-21T14:05:16.833Z,1.27
2022-11-21T14:06:39.631Z,1.28
2022-11-21T14:07:44.872Z,1.25
2022-11-21T14:09:26.258Z,1.26
2022-11-21T14:10:34.587Z,1.25
2022-11-21T14:11:49.827Z,1.24
2022-11-21T14:12:54.393Z,1.23
2022-11-21T14:13:57.726Z,1.24
2022-11-21T14:14:59.976Z,1.22
2022-11-21T14:16:20.388Z,1.24
2022-11-21T14:17:45.349Z,1.23
2022-11-21T14:18:48.127Z,1.22
2022-11-21T14:19:54.853Z,1.22
2022-11-21T14:21:02.143Z,1.21
2022-11-21T14:22:04.415Z,1.21
2022-11-21T14:23:19.449Z,1.21
2022-11-21T14:24:22.012Z,1.21
2022-11-21T14:25:34.451Z,1.20
2022-11-21T14:26:43.999Z,1.19
2022-11-21T14:27:50.217Z,1.19
2022-11-21T14:28:53.036Z,1.19
2022-11-21T14:29:55.752Z,1.18
2022-11-21T14:31:03.176Z,1.19
2022-11-21T14:32:06.019Z,1.18
2022-11-21T14:33:34.585Z,1.19
2022-11-21T14:34:36.866Z,1.17
2022-11-21T14:35:40.236Z,1.17
2022-11-21T14:36:44.181Z,1.15
2022-11-21T14:37:46.565Z,1.16
2022-11-21T14:39:13.764Z,1.14
2022-11-21T14:40:21.568Z,1.13
2022-11-21T14:41:24.050Z,1.12
2022-11-21T14:42:35.538Z,1.11
2022-11-21T14:43:38.125Z,1.08
2022-11-21T14:44:40.411Z,1.09
2022-11-21T14:45:49.623Z,1.09
2022-11-21T14:47:08.889Z,1.08
2022-11-21T14:48:13.074Z,1.07
2022-11-21T14:49:22.057Z,1.06
2022-11-21T14:50:29.488Z,1.04